sensor_id;sensor_type;location;lat;lon;timestamp;pressure;altitude;pressure_sealevel;temperature;humidity
78562;BME280;68963;52.138;5.446;2024-02-23T00:00:35;98665.69;;;4.69;100.00
78562;BME280;68963;52.138;5.446;2024-02-23T00:03:02;98662.06;;;4.70;100.00
78562;BME280;68963;52.138;5.446;2024-02-23T00:05:29;98671.88;;;4.75;100.00
78562;BME280;68963;52.138;5.446;2024-02-23T00:07:55;98683.16;;;4.75;100.00
78562;BME280;68963;52.138;5.446;2024-02-23T00:10:22;98685.94;;;4.80;100.00
78562;BME280;68963;52.138;5.446;2024-02-23T00:12:49;98684.34;;;4.86;100.00
78562;BME280;68963;52.138;5.446;2024-02-23T00:15:15;98685.53;;;4.90;100.00
78562;BME280;68963;52.138;5.446;2024-02-23T00:17:42;98686.72;;;4.94;100.00
78562;BME280;68963;52.138;5.446;2024-02-23T00:20:09;98693.53;;;4.95;100.00
78562;BME280;68963;52.138;5.446;2024-02-23T00:22:40;98688.72;;;4.99;100.00
78562;BME280;68963;52.138;5.446;2024-02-23T00:25:06;98695.34;;;5.01;100.00
78562;BME280;68963;52.138;5.446;2024-02-23T00:27:34;98693.31;;;5.03;100.00
78562;BME280;68963;52.138;5.446;2024-02-23T00:30:00;98701.34;;;5.02;100.00
78562;BME280;68963;52.138;5.446;2024-02-23T00:32:27;98700.34;;;5.03;100.00
78562;BME280;68963;52.138;5.446;2024-02-23T00:34:53;98710.38;;;5.06;100.00
78562;BME280;68963;52.138;5.446;2024-02-23T00:37:20;98701.34;;;5.08;100.00
78562;BME280;68963;52.138;5.446;2024-02-23T00:39:47;98712.56;;;5.09;100.00
78562;BME280;68963;52.138;5.446;2024-02-23T00:42:13;98714.16;;;5.10;100.00
78562;BME280;68963;52.138;5.446;2024-02-23T00:44:40;98716.00;;;5.09;100.00
78562;BME280;68963;52.138;5.446;2024-02-23T00:47:06;98718.38;;;5.11;100.00
78562;BME280;68963;52.138;5.446;2024-02-23T00:49:33;98717.41;;;5.12;100.00
78562;BME280;68963;52.138;5.446;2024-02-23T00:51:59;98717.78;;;5.16;100.00
78562;BME280;68963;52.138;5.446;2024-02-23T00:54:26;98732.59;;;5.22;100.00
78562;BME280;68963;52.138;5.446;2024-02-23T00:56:52;98731.63;;;5.23;100.00
78562;BME280;68963;52.138;5.446;2024-02-23T00:59:22;98735.03;;;5.23;100.00
78562;BME280;68963;52.138;5.446;2024-02-23T01:01:49;98743.44;;;5.25;100.00
78562;BME280;68963;52.138;5.446;2024-02-23T01:04:16;98738.03;;;5.27;100.00
78562;BME280;68963;52.138;5.446;2024-02-23T01:06:42;98737.22;;;5.26;100.00
78562;BME280;68963;52.138;5.446;2024-02-23T01:09:09;98754.91;;;5.24;100.00
78562;BME280;68963;52.138;5.446;2024-02-23T01:11:36;98759.31;;;5.24;100.00
78562;BME280;68963;52.138;5.446;2024-02-23T01:14:02;98772.78;;;5.21;100.00
78562;BME280;68963;52.138;5.446;2024-02-23T01:16:29;98765.34;;;5.18;100.00
78562;BME280;68963;52.138;5.446;2024-02-23T01:18:55;98766.97;;;5.05;100.00
78562;BME280;68963;52.138;5.446;2024-02-23T01:21:23;98780.81;;;4.99;100.00
78562;BME280;68963;52.138;5.446;2024-02-23T01:23:49;98782.22;;;4.95;100.00
78562;BME280;68963;52.138;5.446;2024-02-23T01:26:15;98780.25;;;4.91;100.00
78562;BME280;68963;52.138;5.446;2024-02-23T01:28:42;98786.06;;;4.86;100.00
78562;BME280;68963;52.138;5.446;2024-02-23T01:31:09;98775.63;;;4.79;100.00
78562;BME280;68963;52.138;5.446;2024-02-23T01:33:39;98779.81;;;4.74;100.00
78562;BME280;68963;52.138;5.446;2024-02-23T01:36:07;98795.88;;;4.77;100.00
78562;BME280;68963;52.138;5.446;2024-02-23T01:38:34;98813.94;;;4.79;100.00
78562;BME280;68963;52.138;5.446;2024-02-23T01:41:01;98825.19;;;4.79;100.00
78562;BME280;68963;52.138;5.446;2024-02-23T01:43:28;98806.13;;;4.79;100.00
78562;BME280;68963;52.138;5.446;2024-02-23T01:45:55;98798.09;;;4.80;100.00
78562;BME280;68963;52.138;5.446;2024-02-23T01:48:21;98785.66;;;4.82;100.00
78562;BME280;68963;52.138;5.446;2024-02-23T01:50:48;98807.50;;;4.81;100.00
78562;BME280;68963;52.138;5.446;2024-02-23T01:53:15;98823.16;;;4.81;100.00
78562;BME280;68963;52.138;5.446;2024-02-23T01:55:45;98843.03;;;4.82;100.00
78562;BME280;68963;52.138;5.446;2024-02-23T01:58:12;98829.56;;;4.85;100.00
78562;BME280;68963;52.138;5.446;2024-02-23T02:00:39;98828.38;;;4.88;100.00
78562;BME280;68963;52.138;5.446;2024-02-23T02:03:05;98832.59;;;4.89;100.00
78562;BME280;68963;52.138;5.446;2024-02-23T02:05:38;98840.03;;;4.92;100.00
78562;BME280;68963;52.138;5.446;2024-02-23T02:08:05;98830.59;;;4.91;100.00
78562;BME280;68963;52.138;5.446;2024-02-23T02:10:32;98835.59;;;4.93;100.00
78562;BME280;68963;52.138;5.446;2024-02-23T02:13:05;98840.81;;;4.93;100.00
78562;BME280;68963;52.138;5.446;2024-02-23T02:15:31;98840.03;;;4.92;100.00
78562;BME280;68963;52.138;5.446;2024-02-23T02:17:58;98844.44;;;4.92;100.00
78562;BME280;68963;52.138;5.446;2024-02-23T02:20:25;98843.25;;;4.88;100.00
78562;BME280;68963;52.138;5.446;2024-02-23T02:22:54;98839.03;;;4.87;100.00
78562;BME280;68963;52.138;5.446;2024-02-23T02:25:21;98845.22;;;4.85;100.00
78562;BME280;68963;52.138;5.446;2024-02-23T02:27:48;98844.66;;;4.83;100.00
78562;BME280;68963;52.138;5.446;2024-02-23T02:30:14;98844.25;;;4.80;100.00
78562;BME280;68963;52.138;5.446;2024-02-23T02:32:41;98842.63;;;4.79;100.00
78562;BME280;68963;52.138;5.446;2024-02-23T02:35:10;98840.44;;;4.76;100.00
78562;BME280;68963;52.138;5.446;2024-02-23T02:37:37;98837.81;;;4.76;100.00
78562;BME280;68963;52.138;5.446;2024-02-23T02:40:04;98836.63;;;4.72;100.00
78562;BME280;68963;52.138;5.446;2024-02-23T02:42:33;98850.44;;;4.72;100.00
78562;BME280;68963;52.138;5.446;2024-02-23T02:44:59;98842.41;;;4.67;100.00
78562;BME280;68963;52.138;5.446;2024-02-23T02:47:26;98853.25;;;4.64;100.00
78562;BME280;68963;52.138;5.446;2024-02-23T02:49:53;98859.84;;;4.60;100.00
78562;BME280;68963;52.138;5.446;2024-02-23T02:52:20;98851.44;;;4.58;100.00
78562;BME280;68963;52.138;5.446;2024-02-23T02:54:49;98858.25;;;4.59;100.00
78562;BME280;68963;52.138;5.446;2024-02-23T02:57:16;98862.88;;;4.57;100.00
78562;BME280;68963;52.138;5.446;2024-02-23T02:59:42;98864.47;;;4.58;100.00
78562;BME280;68963;52.138;5.446;2024-02-23T03:02:10;98854.84;;;4.58;100.00
78562;BME280;68963;52.138;5.446;2024-02-23T03:04:37;98861.22;;;4.56;100.00
78562;BME280;68963;52.138;5.446;2024-02-23T03:07:04;98861.66;;;4.53;100.00
78562;BME280;68963;52.138;5.446;2024-02-23T03:09:31;98862.63;;;4.52;100.00
78562;BME280;68963;52.138;5.446;2024-02-23T03:11:57;98870.66;;;4.50;100.00
78562;BME280;68963;52.138;5.446;2024-02-23T03:14:25;98867.44;;;4.48;100.00
78562;BME280;68963;52.138;5.446;2024-02-23T03:16:52;98884.72;;;4.49;100.00
78562;BME280;68963;52.138;5.446;2024-02-23T03:19:18;98888.13;;;4.50;100.00
78562;BME280;68963;52.138;5.446;2024-02-23T03:21:49;98886.31;;;4.50;100.00
78562;BME280;68963;52.138;5.446;2024-02-23T03:24:16;98884.50;;;4.51;100.00
78562;BME280;68963;52.138;5.446;2024-02-23T03:26:42;98884.28;;;4.46;100.00
78562;BME280;68963;52.138;5.446;2024-02-23T03:29:10;98883.06;;;4.42;100.00
78562;BME280;68963;52.138;5.446;2024-02-23T03:31:37;98890.06;;;4.41;100.00
78562;BME280;68963;52.138;5.446;2024-02-23T03:34:03;98900.31;;;4.43;100.00
78562;BME280;68963;52.138;5.446;2024-02-23T03:36:30;98888.69;;;4.39;100.00
78562;BME280;68963;52.138;5.446;2024-02-23T03:38:56;98890.47;;;4.38;100.00
78562;BME280;68963;52.138;5.446;2024-02-23T03:41:23;98897.47;;;4.38;100.00
78562;BME280;68963;52.138;5.446;2024-02-23T03:43:50;98898.88;;;4.33;100.00
78562;BME280;68963;52.138;5.446;2024-02-23T03:46:16;98901.06;;;4.30;100.00
78562;BME280;68963;52.138;5.446;2024-02-23T03:48:44;98911.06;;;4.26;100.00
78562;BME280;68963;52.138;5.446;2024-02-23T03:51:12;98905.44;;;4.23;100.00
78562;BME280;68963;52.138;5.446;2024-02-23T03:53:38;98923.50;;;4.24;100.00
78562;BME280;68963;52.138;5.446;2024-02-23T03:56:05;98912.28;;;4.24;100.00
78562;BME280;68963;52.138;5.446;2024-02-23T03:58:32;98910.66;;;4.23;100.00
78562;BME280;68963;52.138;5.446;2024-02-23T04:00:58;98909.25;;;4.20;100.00
78562;BME280;68963;52.138;5.446;2024-02-23T04:03:25;98911.88;;;4.20;100.00
78562;BME280;68963;52.138;5.446;2024-02-23T04:05:51;98918.06;;;4.19;100.00
78562;BME280;68963;52.138;5.446;2024-02-23T04:08:18;98904.22;;;4.19;100.00
78562;BME280;68963;52.138;5.446;2024-02-23T04:10:44;98921.06;;;4.16;100.00
78562;BME280;68963;52.138;5.446;2024-02-23T04:13:11;98924.06;;;4.13;100.00
78562;BME280;68963;52.138;5.446;2024-02-23T04:15:40;98914.81;;;4.10;100.00
78562;BME280;68963;52.138;5.446;2024-02-23T04:18:06;98923.81;;;4.08;100.00
78562;BME280;68963;52.138;5.446;2024-02-23T04:20:33;98927.00;;;4.03;100.00
78562;BME280;68963;52.138;5.446;2024-02-23T04:23:00;98926.38;;;4.01;100.00
78562;BME280;68963;52.138;5.446;2024-02-23T04:25:27;98933.22;;;4.02;100.00
78562;BME280;68963;52.138;5.446;2024-02-23T04:27:53;98933.38;;;4.01;100.00
78562;BME280;68963;52.138;5.446;2024-02-23T04:30:20;98937.19;;;3.98;100.00
78562;BME280;68963;52.138;5.446;2024-02-23T04:32:47;98937.19;;;3.98;100.00
78562;BME280;68963;52.138;5.446;2024-02-23T04:35:14;98937.19;;;3.98;100.00
78562;BME280;68963;52.138;5.446;2024-02-23T04:37:43;98934.97;;;3.95;100.00
78562;BME280;68963;52.138;5.446;2024-02-23T04:40:11;98937.75;;;3.94;100.00
78562;BME280;68963;52.138;5.446;2024-02-23T04:42:38;98943.16;;;3.92;100.00
78562;BME280;68963;52.138;5.446;2024-02-23T04:45:05;98947.16;;;3.88;100.00
78562;BME280;68963;52.138;5.446;2024-02-23T04:47:32;98951.72;;;3.86;100.00
78562;BME280;68963;52.138;5.446;2024-02-23T04:49:59;98954.34;;;3.86;100.00
78562;BME280;68963;52.138;5.446;2024-02-23T04:52:25;98955.97;;;3.87;100.00
78562;BME280;68963;52.138;5.446;2024-02-23T04:54:52;98960.59;;;3.92;100.00
78562;BME280;68963;52.138;5.446;2024-02-23T04:57:18;98956.41;;;3.97;100.00
78562;BME280;68963;52.138;5.446;2024-02-23T04:59:45;98963.03;;;4.00;100.00
78562;BME280;68963;52.138;5.446;2024-02-23T05:02:12;98962.66;;;4.03;100.00
78562;BME280;68963;52.138;5.446;2024-02-23T05:04:39;98975.13;;;4.07;100.00
78562;BME280;68963;52.138;5.446;2024-02-23T05:07:06;98964.13;;;4.12;100.00
78562;BME280;68963;52.138;5.446;2024-02-23T05:09:33;98957.94;;;4.13;100.00
78562;BME280;68963;52.138;5.446;2024-02-23T05:12:01;98965.53;;;4.15;100.00
78562;BME280;68963;52.138;5.446;2024-02-23T05:14:28;98958.53;;;4.15;100.00
78562;BME280;68963;52.138;5.446;2024-02-23T05:16:54;98954.94;;;4.16;100.00
78562;BME280;68963;52.138;5.446;2024-02-23T05:19:21;98951.50;;;4.16;100.00
78562;BME280;68963;52.138;5.446;2024-02-23T05:21:47;98954.53;;;4.19;100.00
78562;BME280;68963;52.138;5.446;2024-02-23T05:24:14;98954.34;;;4.21;100.00
78562;BME280;68963;52.138;5.446;2024-02-23T05:26:43;98954.16;;;4.22;100.00
78562;BME280;68963;52.138;5.446;2024-02-23T05:29:10;98958.34;;;4.23;100.00
78562;BME280;68963;52.138;5.446;2024-02-23T05:31:47;98957.19;;;4.26;100.00
78562;BME280;68963;52.138;5.446;2024-02-23T05:34:14;98952.59;;;4.28;100.00
78562;BME280;68963;52.138;5.446;2024-02-23T05:36:42;98965.41;;;4.29;100.00
78562;BME280;68963;52.138;5.446;2024-02-23T05:39:09;98966.03;;;4.31;100.00
78562;BME280;68963;52.138;5.446;2024-02-23T05:41:36;98961.63;;;4.32;100.00
78562;BME280;68963;52.138;5.446;2024-02-23T05:44:06;98957.22;;;4.32;100.00
78562;BME280;68963;52.138;5.446;2024-02-23T05:46:34;98963.84;;;4.35;100.00
78562;BME280;68963;52.138;5.446;2024-02-23T05:49:01;98958.44;;;4.36;100.00
78562;BME280;68963;52.138;5.446;2024-02-23T05:51:29;98960.03;;;4.38;100.00
78562;BME280;68963;52.138;5.446;2024-02-23T05:53:56;98967.84;;;4.38;100.00
78562;BME280;68963;52.138;5.446;2024-02-23T05:56:23;98967.25;;;4.35;100.00
78562;BME280;68963;52.138;5.446;2024-02-23T05:58:52;98956.03;;;4.35;100.00
78562;BME280;68963;52.138;5.446;2024-02-23T06:01:19;98955.81;;;4.36;100.00
78562;BME280;68963;52.138;5.446;2024-02-23T06:03:46;98959.44;;;4.35;100.00
78562;BME280;68963;52.138;5.446;2024-02-23T06:06:13;98965.44;;;4.36;100.00
78562;BME280;68963;52.138;5.446;2024-02-23T06:08:40;98962.03;;;4.35;100.00
78562;BME280;68963;52.138;5.446;2024-02-23T06:11:09;98963.25;;;4.40;100.00
78562;BME280;68963;52.138;5.446;2024-02-23T06:13:36;98960.44;;;4.41;100.00
78562;BME280;68963;52.138;5.446;2024-02-23T06:16:04;98965.50;;;4.43;100.00
78562;BME280;68963;52.138;5.446;2024-02-23T06:18:31;98966.09;;;4.45;100.00
78562;BME280;68963;52.138;5.446;2024-02-23T06:20:58;98967.50;;;4.47;100.00
78562;BME280;68963;52.138;5.446;2024-02-23T06:23:24;98965.69;;;4.48;100.00
78562;BME280;68963;52.138;5.446;2024-02-23T06:25:51;98962.91;;;4.49;100.00
78562;BME280;68963;52.138;5.446;2024-02-23T06:28:18;98968.94;;;4.50;100.00
78562;BME280;68963;52.138;5.446;2024-02-23T06:30:44;98968.72;;;4.51;100.00
78562;BME280;68963;52.138;5.446;2024-02-23T06:33:11;98964.94;;;4.54;100.00
78562;BME280;68963;52.138;5.446;2024-02-23T06:35:38;98974.16;;;4.56;100.00
78562;BME280;68963;52.138;5.446;2024-02-23T06:38:04;98975.78;;;4.57;100.00
78562;BME280;68963;52.138;5.446;2024-02-23T06:40:32;98974.38;;;4.62;100.00
78562;BME280;68963;52.138;5.446;2024-02-23T06:43:13;98980.19;;;4.64;100.00
78562;BME280;68963;52.138;5.446;2024-02-23T06:45:40;98983.41;;;4.66;100.00
78562;BME280;68963;52.138;5.446;2024-02-23T06:48:07;98986.81;;;4.66;100.00
78562;BME280;68963;52.138;5.446;2024-02-23T06:50:35;98986.44;;;4.69;100.00
78562;BME280;68963;52.138;5.446;2024-02-23T06:53:02;98975.00;;;4.70;100.00
78562;BME280;68963;52.138;5.446;2024-02-23T06:55:28;98977.22;;;4.73;100.00
78562;BME280;68963;52.138;5.446;2024-02-23T06:57:55;98987.44;;;4.75;100.00
78562;BME280;68963;52.138;5.446;2024-02-23T07:00:22;98978.66;;;4.76;100.00
78562;BME280;68963;52.138;5.446;2024-02-23T07:02:48;98979.25;;;4.78;100.00
78562;BME280;68963;52.138;5.446;2024-02-23T07:05:15;98967.63;;;4.80;100.00
78562;BME280;68963;52.138;5.446;2024-02-23T07:07:41;98970.84;;;4.82;100.00
78562;BME280;68963;52.138;5.446;2024-02-23T07:10:09;98975.88;;;4.84;100.00
78562;BME280;68963;52.138;5.446;2024-02-23T07:12:36;98975.88;;;4.84;100.00
78562;BME280;68963;52.138;5.446;2024-02-23T07:15:03;98978.47;;;4.84;100.00
78562;BME280;68963;52.138;5.446;2024-02-23T07:17:30;98978.25;;;4.85;100.00
78562;BME280;68963;52.138;5.446;2024-02-23T07:19:57;98980.69;;;4.87;100.00
78562;BME280;68963;52.138;5.446;2024-02-23T07:22:32;98979.47;;;4.90;100.00
78562;BME280;68963;52.138;5.446;2024-02-23T07:24:59;98998.34;;;4.92;100.00
78562;BME280;68963;52.138;5.446;2024-02-23T07:27:28;98984.72;;;4.96;100.00
78562;BME280;68963;52.138;5.446;2024-02-23T07:29:55;98976.50;;;4.99;100.00
78562;BME280;68963;52.138;5.446;2024-02-23T07:32:22;98982.75;;;5.05;100.00
78562;BME280;68963;52.138;5.446;2024-02-23T07:34:48;98985.56;;;5.10;100.00
78562;BME280;68963;52.138;5.446;2024-02-23T07:37:16;98980.75;;;5.14;100.00
78562;BME280;68963;52.138;5.446;2024-02-23T07:39:42;98972.91;;;5.14;100.00
78562;BME280;68963;52.138;5.446;2024-02-23T07:42:09;98976.16;;;5.16;100.00
78562;BME280;68963;52.138;5.446;2024-02-23T07:44:37;98966.13;;;5.19;100.00
78562;BME280;68963;52.138;5.446;2024-02-23T07:47:04;98969.94;;;5.23;100.00
78562;BME280;68963;52.138;5.446;2024-02-23T07:49:31;98964.09;;;5.28;100.00
78562;BME280;68963;52.138;5.446;2024-02-23T07:51:57;98954.47;;;5.35;100.00
78562;BME280;68963;52.138;5.446;2024-02-23T07:54:24;98958.28;;;5.39;100.00
78562;BME280;68963;52.138;5.446;2024-02-23T07:56:51;98944.84;;;5.42;100.00
78562;BME280;68963;52.138;5.446;2024-02-23T07:59:17;98949.44;;;5.47;100.00
78562;BME280;68963;52.138;5.446;2024-02-23T08:01:47;98947.84;;;5.46;100.00
78562;BME280;68963;52.138;5.446;2024-02-23T08:04:13;98947.84;;;5.46;100.00
78562;BME280;68963;52.138;5.446;2024-02-23T08:06:40;98941.84;;;5.45;100.00
78562;BME280;68963;52.138;5.446;2024-02-23T08:09:07;98943.44;;;5.46;100.00
78562;BME280;68963;52.138;5.446;2024-02-23T08:11:34;98947.47;;;5.49;100.00
78562;BME280;68963;52.138;5.446;2024-02-23T08:14:02;98934.19;;;5.50;100.00
78562;BME280;68963;52.138;5.446;2024-02-23T08:16:29;98945.44;;;5.51;100.00
78562;BME280;68963;52.138;5.446;2024-02-23T08:18:56;98929.97;;;5.56;100.00
78562;BME280;68963;52.138;5.446;2024-02-23T08:21:22;98935.38;;;5.61;100.00
78562;BME280;68963;52.138;5.446;2024-02-23T08:23:49;98935.97;;;5.63;100.00
78562;BME280;68963;52.138;5.446;2024-02-23T08:26:15;98930.34;;;5.66;100.00
78562;BME280;68963;52.138;5.446;2024-02-23T08:28:42;98930.34;;;5.66;100.00
78562;BME280;68963;52.138;5.446;2024-02-23T08:31:09;98937.38;;;5.66;100.00
78562;BME280;68963;52.138;5.446;2024-02-23T08:33:35;98923.53;;;5.65;100.00
78562;BME280;68963;52.138;5.446;2024-02-23T08:36:02;98935.00;;;5.64;100.00
78562;BME280;68963;52.138;5.446;2024-02-23T08:38:32;98930.16;;;5.61;100.00
78562;BME280;68963;52.138;5.446;2024-02-23T08:40:59;98930.16;;;5.61;100.00
78562;BME280;68963;52.138;5.446;2024-02-23T08:43:26;98922.53;;;5.60;100.00
78562;BME280;68963;52.138;5.446;2024-02-23T08:45:52;98920.53;;;5.62;100.00
78562;BME280;68963;52.138;5.446;2024-02-23T08:48:19;98919.91;;;5.60;100.00
78562;BME280;68963;52.138;5.446;2024-02-23T08:50:45;98918.13;;;5.60;100.00
78562;BME280;68963;52.138;5.446;2024-02-23T08:53:12;98915.50;;;5.60;100.00
78562;BME280;68963;52.138;5.446;2024-02-23T08:55:39;98915.50;;;5.60;100.00
78562;BME280;68963;52.138;5.446;2024-02-23T08:58:05;98919.09;;;5.59;100.00
78562;BME280;68963;52.138;5.446;2024-02-23T09:00:32;98919.31;;;5.57;100.00
78562;BME280;68963;52.138;5.446;2024-02-23T09:02:59;98917.50;;;5.58;100.00
78562;BME280;68963;52.138;5.446;2024-02-23T09:05:26;98926.94;;;5.59;100.00
78562;BME280;68963;52.138;5.446;2024-02-23T09:07:53;98919.09;;;5.59;100.00
78562;BME280;68963;52.138;5.446;2024-02-23T09:10:20;98918.91;;;5.61;100.00
78562;BME280;68963;52.138;5.446;2024-02-23T09:12:46;98920.31;;;5.63;100.00
78562;BME280;68963;52.138;5.446;2024-02-23T09:15:13;98932.97;;;5.66;100.00
78562;BME280;68963;52.138;5.446;2024-02-23T09:17:40;98925.75;;;5.68;100.00
78562;BME280;68963;52.138;5.446;2024-02-23T09:20:08;98934.59;;;5.67;100.00
78562;BME280;68963;52.138;5.446;2024-02-23T09:22:35;98944.22;;;5.67;100.00
78562;BME280;68963;52.138;5.446;2024-02-23T09:25:03;98939.81;;;5.67;100.00
78562;BME280;68963;52.138;5.446;2024-02-23T09:27:31;98940.63;;;5.68;100.00
78562;BME280;68963;52.138;5.446;2024-02-23T09:29:58;98944.59;;;5.70;100.00
78562;BME280;68963;52.138;5.446;2024-02-23T09:32:25;98943.22;;;5.74;100.00
78562;BME280;68963;52.138;5.446;2024-02-23T09:34:51;98937.97;;;5.81;100.00
78562;BME280;68963;52.138;5.446;2024-02-23T09:37:18;98943.81;;;5.83;100.00
78562;BME280;68963;52.138;5.446;2024-02-23T09:39:45;98938.38;;;5.85;100.00
78562;BME280;68963;52.138;5.446;2024-02-23T09:42:11;98945.22;;;5.86;100.00
78562;BME280;68963;52.138;5.446;2024-02-23T09:44:39;98942.78;;;5.84;100.00
78562;BME280;68963;52.138;5.446;2024-02-23T09:47:06;98947.44;;;5.82;100.00
78562;BME280;68963;52.138;5.446;2024-02-23T09:49:38;98946.59;;;5.81;100.00
78562;BME280;68963;52.138;5.446;2024-02-23T09:52:08;98951.63;;;5.83;100.00
78562;BME280;68963;52.138;5.446;2024-02-23T09:54:39;98955.84;;;5.84;100.00
78562;BME280;68963;52.138;5.446;2024-02-23T09:57:10;98960.50;;;5.82;100.00
78562;BME280;68963;52.138;5.446;2024-02-23T09:59:37;98954.44;;;5.81;100.00
78562;BME280;68963;52.138;5.446;2024-02-23T10:02:08;98970.72;;;5.84;100.00
78562;BME280;68963;52.138;5.446;2024-02-23T10:04:39;98972.53;;;5.90;100.00
78562;BME280;68963;52.138;5.446;2024-02-23T10:07:06;98959.28;;;6.04;100.00
78562;BME280;68963;52.138;5.446;2024-02-23T10:09:32;98965.88;;;6.20;100.00
78562;BME280;68963;52.138;5.446;2024-02-23T10:12:03;98968.47;;;6.34;100.00
78562;BME280;68963;52.138;5.446;2024-02-23T10:14:30;98966.56;;;6.47;100.00
78562;BME280;68963;52.138;5.446;2024-02-23T10:16:57;98980.84;;;6.51;100.00
78562;BME280;68963;52.138;5.446;2024-02-23T10:19:23;98974.41;;;6.54;100.00
78562;BME280;68963;52.138;5.446;2024-02-23T10:21:56;98973.78;;;6.59;100.00
78562;BME280;68963;52.138;5.446;2024-02-23T10:24:23;98975.78;;;6.63;100.00
78562;BME280;68963;52.138;5.446;2024-02-23T10:26:51;98982.00;;;6.62;100.00
78562;BME280;68963;52.138;5.446;2024-02-23T10:29:17;98980.00;;;6.64;100.00
78562;BME280;68963;52.138;5.446;2024-02-23T10:31:47;98971.94;;;6.66;100.00
78562;BME280;68963;52.138;5.446;2024-02-23T10:34:19;98985.22;;;6.64;100.00
78562;BME280;68963;52.138;5.446;2024-02-23T10:36:46;98986.06;;;6.58;100.00
78562;BME280;68963;52.138;5.446;2024-02-23T10:39:18;98988.91;;;6.50;100.00
78562;BME280;68963;52.138;5.446;2024-02-23T10:41:56;99000.41;;;6.42;100.00
78562;BME280;68963;52.138;5.446;2024-02-23T10:44:23;98999.59;;;6.42;100.00
78562;BME280;68963;52.138;5.446;2024-02-23T10:46:51;99006.44;;;6.36;100.00
78562;BME280;68963;52.138;5.446;2024-02-23T10:49:19;99017.75;;;6.30;100.00
78562;BME280;68963;52.138;5.446;2024-02-23T10:51:49;99019.34;;;6.31;100.00
78562;BME280;68963;52.138;5.446;2024-02-23T10:54:19;99024.16;;;6.34;100.00
78562;BME280;68963;52.138;5.446;2024-02-23T10:56:50;99023.75;;;6.37;100.00
78562;BME280;68963;52.138;5.446;2024-02-23T10:59:18;99018.09;;;6.40;100.00
78562;BME280;68963;52.138;5.446;2024-02-23T11:01:49;99012.84;;;6.47;100.00
78562;BME280;68963;52.138;5.446;2024-02-23T11:04:17;99024.50;;;6.51;100.00
78562;BME280;68963;52.138;5.446;2024-02-23T11:06:51;99020.03;;;6.65;100.00
78562;BME280;68963;52.138;5.446;2024-02-23T11:09:21;99029.81;;;6.89;100.00
78562;BME280;68963;52.138;5.446;2024-02-23T11:11:58;99025.13;;;6.98;100.00
78562;BME280;68963;52.138;5.446;2024-02-23T11:14:32;99023.06;;;7.07;100.00
78562;BME280;68963;52.138;5.446;2024-02-23T11:17:01;99023.44;;;7.17;100.00
78562;BME280;68963;52.138;5.446;2024-02-23T11:19:36;99017.34;;;7.23;100.00
78562;BME280;68963;52.138;5.446;2024-02-23T11:22:04;99015.88;;;7.34;100.00
78562;BME280;68963;52.138;5.446;2024-02-23T11:24:33;99023.25;;;7.43;100.00
78562;BME280;68963;52.138;5.446;2024-02-23T11:27:00;99030.63;;;7.60;100.00
78562;BME280;68963;52.138;5.446;2024-02-23T11:29:34;99024.41;;;7.79;100.00
78562;BME280;68963;52.138;5.446;2024-02-23T11:32:02;99030.84;;;7.83;100.00
78562;BME280;68963;52.138;5.446;2024-02-23T11:34:30;99025.59;;;7.83;100.00
78562;BME280;68963;52.138;5.446;2024-02-23T11:36:57;99022.97;;;7.83;100.00
78562;BME280;68963;52.138;5.446;2024-02-23T11:39:26;99017.56;;;7.78;100.00
78562;BME280;68963;52.138;5.446;2024-02-23T11:41:53;99025.81;;;7.82;100.00
78562;BME280;68963;52.138;5.446;2024-02-23T11:44:20;99018.69;;;7.89;100.00
78562;BME280;68963;52.138;5.446;2024-02-23T11:46:47;99025.69;;;7.95;100.00
78562;BME280;68963;52.138;5.446;2024-02-23T11:49:14;99017.56;;;8.03;100.00
78562;BME280;68963;52.138;5.446;2024-02-23T11:51:42;99035.69;;;8.05;100.00
78562;BME280;68963;52.138;5.446;2024-02-23T11:54:09;99044.78;;;8.02;100.00
78562;BME280;68963;52.138;5.446;2024-02-23T11:56:35;99038.16;;;7.99;100.00
78562;BME280;68963;52.138;5.446;2024-02-23T11:59:02;99033.31;;;8.03;100.00
78562;BME280;68963;52.138;5.446;2024-02-23T12:01:30;99030.69;;;8.03;100.00
78562;BME280;68963;52.138;5.446;2024-02-23T12:03:57;99033.31;;;8.03;100.00
78562;BME280;68963;52.138;5.446;2024-02-23T12:06:24;99044.22;;;8.00;100.00
78562;BME280;68963;52.138;5.446;2024-02-23T12:08:54;99051.06;;;8.01;100.00
78562;BME280;68963;52.138;5.446;2024-02-23T12:11:20;99055.91;;;7.97;100.00
78562;BME280;68963;52.138;5.446;2024-02-23T12:13:47;99043.66;;;7.91;100.00
78562;BME280;68963;52.138;5.446;2024-02-23T12:16:14;99043.38;;;7.81;100.00
78562;BME280;68963;52.138;5.446;2024-02-23T12:18:40;99047.22;;;7.79;100.00
78562;BME280;68963;52.138;5.446;2024-02-23T12:21:08;99033.25;;;7.85;100.00
78562;BME280;68963;52.138;5.446;2024-02-23T12:23:42;99046.28;;;7.91;100.00
78562;BME280;68963;52.138;5.446;2024-02-23T12:26:12;99043.63;;;7.98;100.00
78562;BME280;68963;52.138;5.446;2024-02-23T12:28:40;99043.78;;;8.03;100.00
78562;BME280;68963;52.138;5.446;2024-02-23T12:31:07;99037.47;;;8.11;100.00
78562;BME280;68963;52.138;5.446;2024-02-23T12:33:35;99032.38;;;8.34;100.00
78562;BME280;68963;52.138;5.446;2024-02-23T12:36:03;99049.69;;;8.42;100.00
78562;BME280;68963;52.138;5.446;2024-02-23T12:38:30;99062.84;;;8.35;100.00
78562;BME280;68963;52.138;5.446;2024-02-23T12:40:57;99053.97;;;8.36;100.00
78562;BME280;68963;52.138;5.446;2024-02-23T12:43:24;99057.59;;;8.35;100.00
78562;BME280;68963;52.138;5.446;2024-02-23T12:45:52;99056.59;;;8.36;100.00
78562;BME280;68963;52.138;5.446;2024-02-23T12:48:19;99066.22;;;8.42;100.00
78562;BME280;68963;52.138;5.446;2024-02-23T12:50:47;99064.72;;;8.53;100.00
78562;BME280;68963;52.138;5.446;2024-02-23T12:53:34;99075.50;;;8.45;100.00
78562;BME280;68963;52.138;5.446;2024-02-23T12:56:03;99068.06;;;8.42;100.00
78562;BME280;68963;52.138;5.446;2024-02-23T12:58:36;99079.72;;;8.64;100.00
78562;BME280;68963;52.138;5.446;2024-02-23T13:01:04;99079.59;;;8.59;100.00